Warri, Nigeria

10:39 PM WAT on August 27, 2014 (GMT +0100)
Benin | Change Station
CLOSE
Current Station
Airport
Location: BENIN CITY(CIV/,
Elevation: 259 ft
Nearby Weather Stations

Elev 259 ft 6.32 °N, 5.60 °E | Updated 39 minutes ago

Mostly Cloudy
Mostly Cloudy
75 °F
Feels Like 75 °F
N
0
Wind Variable Wind from North
Gusts mph

Today
High -- | Low -- °F
--% Chance of Precip.
Yesterday
High -- | Low -- °F
Precip. -- in
6:31 AM 6:45 PM
Waxing Crescent, 5% visible
Pressure 29.98 in
Visibility 6.2 miles
Clouds
Dew Point 73 °F
Humidity 94%
Rainfall 0.00 in
Snow Depth Not available.
UV Not available.
Pollen Not available.
Air Quality Not available.
Flu Activity Not available.
METAR DNBE 272100Z 00000KT 9999 24/23 Q1015

More Conditions Fewer Conditions

Pressure 29.98 in
Visibility 6.2 miles
Clouds
Dew Point 73 °F
Humidity 94%
Rainfall 0.00 in
Snow Depth Not available.
UV Not available.
Pollen Not available.
Air Quality Not available.
Flu Activity Not available.
METAR DNBE 272100Z 00000KT 9999 24/23 Q1015

More Conditions Fewer Conditions

10-Day Weather Forecast

Almanac

Astronomy

Aug. 27, 2014 Rise Set
Actual Time 6:31 AM WAT 6:45 PM WAT
Civil Twilight 6:10 AM WAT 7:06 PM WAT
Nautical Twilight 5:45 AM WAT 7:31 PM WAT
Astronomical Twilight 5:21 AM WAT 7:56 PM WAT
Moon 7:43 AM WAT 8:04 PM WAT
Length of Visible Light 12h 56m
Length of Day
12h 14m
Tomorrow will be 0m 18s shorter.
Waxing Crescent, 5% of the Moon is Illuminated
Today
Waxing Crescent
Sep 2
First Quarter
Sep 8
Full
Sep 15
Last Quarter
Sep 24
New

Today's Extremes

Country Highs Country Lows

Community

WunderPhotos

Upload Photos

1,747,791 photos uploaded!

Nearby

Snow Depth

Not available.

Earthquake Activity

City Distance Mag. Time & Date
No recent earthquake activity has been reported nearby.
Minimum magnitude displayed is 2.5.

Coastal Water Temperatures

Place Temperature
No Stations Reporting

Nearby Weather Stations